sensor_id;sensor_type;location;lat;lon;timestamp;P1;durP1;ratioP1;P2;durP2;ratioP2
24739;SDS011;45234;48.148;17.128;2023-12-07T00:00:05;77.13;;;35.92;;
24739;SDS011;45234;48.148;17.128;2023-12-07T00:02:33;70.45;;;33.22;;
24739;SDS011;45234;48.148;17.128;2023-12-07T00:05:00;74.40;;;34.88;;
24739;SDS011;45234;48.148;17.128;2023-12-07T00:07:30;70.15;;;33.30;;
24739;SDS011;45234;48.148;17.128;2023-12-07T00:09:57;78.20;;;34.50;;
24739;SDS011;45234;48.148;17.128;2023-12-07T00:12:25;75.57;;;34.67;;
24739;SDS011;45234;48.148;17.128;2023-12-07T00:14:53;74.75;;;34.75;;
24739;SDS011;45234;48.148;17.128;2023-12-07T00:17:21;77.88;;;34.80;;
24739;SDS011;45234;48.148;17.128;2023-12-07T00:19:50;76.65;;;34.72;;
24739;SDS011;45234;48.148;17.128;2023-12-07T00:22:19;82.10;;;36.55;;
24739;SDS011;45234;48.148;17.128;2023-12-07T00:24:49;73.18;;;34.08;;
24739;SDS011;45234;48.148;17.128;2023-12-07T00:27:18;70.32;;;32.92;;
24739;SDS011;45234;48.148;17.128;2023-12-07T00:29:45;76.00;;;35.78;;
24739;SDS011;45234;48.148;17.128;2023-12-07T00:32:12;71.53;;;33.60;;
24739;SDS011;45234;48.148;17.128;2023-12-07T00:34:39;71.15;;;33.83;;
24739;SDS011;45234;48.148;17.128;2023-12-07T00:37:06;79.20;;;35.80;;
24739;SDS011;45234;48.148;17.128;2023-12-07T00:39:33;74.28;;;34.60;;
24739;SDS011;45234;48.148;17.128;2023-12-07T00:42:00;77.43;;;34.92;;
24739;SDS011;45234;48.148;17.128;2023-12-07T00:44:27;92.45;;;39.75;;
24739;SDS011;45234;48.148;17.128;2023-12-07T00:46:54;74.80;;;34.72;;
24739;SDS011;45234;48.148;17.128;2023-12-07T00:49:20;69.80;;;33.35;;
24739;SDS011;45234;48.148;17.128;2023-12-07T00:51:47;77.78;;;34.67;;
24739;SDS011;45234;48.148;17.128;2023-12-07T00:54:14;82.25;;;35.83;;
24739;SDS011;45234;48.148;17.128;2023-12-07T00:56:41;72.32;;;34.22;;
24739;SDS011;45234;48.148;17.128;2023-12-07T00:59:07;72.88;;;34.33;;
24739;SDS011;45234;48.148;17.128;2023-12-07T01:01:35;76.35;;;35.35;;
24739;SDS011;45234;48.148;17.128;2023-12-07T01:04:05;63.50;;;32.25;;
24739;SDS011;45234;48.148;17.128;2023-12-07T01:06:32;72.35;;;35.20;;
24739;SDS011;45234;48.148;17.128;2023-12-07T01:08:59;75.03;;;33.88;;
24739;SDS011;45234;48.148;17.128;2023-12-07T01:11:25;73.07;;;33.55;;
24739;SDS011;45234;48.148;17.128;2023-12-07T01:13:52;79.20;;;34.42;;
24739;SDS011;45234;48.148;17.128;2023-12-07T01:16:19;71.82;;;34.50;;
24739;SDS011;45234;48.148;17.128;2023-12-07T01:18:46;73.63;;;34.10;;
24739;SDS011;45234;48.148;17.128;2023-12-07T01:21:13;65.97;;;33.20;;
24739;SDS011;45234;48.148;17.128;2023-12-07T01:23:40;71.03;;;32.92;;
24739;SDS011;45234;48.148;17.128;2023-12-07T01:26:08;71.30;;;34.97;;
24739;SDS011;45234;48.148;17.128;2023-12-07T01:28:35;73.30;;;34.63;;
24739;SDS011;45234;48.148;17.128;2023-12-07T01:31:02;70.22;;;32.90;;
24739;SDS011;45234;48.148;17.128;2023-12-07T01:33:29;67.35;;;33.05;;
24739;SDS011;45234;48.148;17.128;2023-12-07T01:35:56;70.75;;;33.60;;
24739;SDS011;45234;48.148;17.128;2023-12-07T01:38:23;70.43;;;33.03;;
24739;SDS011;45234;48.148;17.128;2023-12-07T01:40:50;72.00;;;35.30;;
24739;SDS011;45234;48.148;17.128;2023-12-07T01:43:17;67.75;;;33.05;;
24739;SDS011;45234;48.148;17.128;2023-12-07T01:45:46;71.05;;;34.53;;
24739;SDS011;45234;48.148;17.128;2023-12-07T01:48:13;76.90;;;35.35;;
24739;SDS011;45234;48.148;17.128;2023-12-07T01:50:40;78.72;;;33.88;;
24739;SDS011;45234;48.148;17.128;2023-12-07T01:53:07;67.50;;;33.25;;
24739;SDS011;45234;48.148;17.128;2023-12-07T01:55:35;78.47;;;33.67;;
24739;SDS011;45234;48.148;17.128;2023-12-07T01:58:02;72.95;;;34.42;;
24739;SDS011;45234;48.148;17.128;2023-12-07T02:00:30;77.78;;;36.97;;
24739;SDS011;45234;48.148;17.128;2023-12-07T02:02:57;69.70;;;32.38;;
24739;SDS011;45234;48.148;17.128;2023-12-07T02:05:24;66.25;;;34.00;;
24739;SDS011;45234;48.148;17.128;2023-12-07T02:07:52;62.88;;;30.90;;
24739;SDS011;45234;48.148;17.128;2023-12-07T02:10:19;57.40;;;28.90;;
24739;SDS011;45234;48.148;17.128;2023-12-07T02:12:46;56.08;;;28.00;;
24739;SDS011;45234;48.148;17.128;2023-12-07T02:15:14;56.08;;;28.15;;
24739;SDS011;45234;48.148;17.128;2023-12-07T02:20:49;49.67;;;26.73;;
24739;SDS011;45234;48.148;17.128;2023-12-07T02:23:38;45.28;;;25.00;;
24739;SDS011;45234;48.148;17.128;2023-12-07T02:29:17;52.88;;;26.80;;
24739;SDS011;45234;48.148;17.128;2023-12-07T02:31:44;49.03;;;25.73;;
24739;SDS011;45234;48.148;17.128;2023-12-07T02:34:11;51.83;;;25.13;;
24739;SDS011;45234;48.148;17.128;2023-12-07T02:36:38;46.83;;;24.67;;
24739;SDS011;45234;48.148;17.128;2023-12-07T02:39:07;45.42;;;22.30;;
24739;SDS011;45234;48.148;17.128;2023-12-07T02:41:35;40.13;;;21.40;;
24739;SDS011;45234;48.148;17.128;2023-12-07T02:44:03;39.25;;;20.58;;
24739;SDS011;45234;48.148;17.128;2023-12-07T02:46:30;34.63;;;19.63;;
24739;SDS011;45234;48.148;17.128;2023-12-07T02:48:57;40.28;;;21.75;;
24739;SDS011;45234;48.148;17.128;2023-12-07T02:51:24;39.00;;;20.65;;
24739;SDS011;45234;48.148;17.128;2023-12-07T02:53:52;40.20;;;21.38;;
24739;SDS011;45234;48.148;17.128;2023-12-07T02:56:19;45.30;;;22.63;;
24739;SDS011;45234;48.148;17.128;2023-12-07T02:58:46;38.80;;;21.10;;
24739;SDS011;45234;48.148;17.128;2023-12-07T03:01:13;40.15;;;21.42;;
24739;SDS011;45234;48.148;17.128;2023-12-07T03:03:41;36.38;;;19.42;;
24739;SDS011;45234;48.148;17.128;2023-12-07T03:06:08;36.50;;;20.23;;
24739;SDS011;45234;48.148;17.128;2023-12-07T03:08:35;38.88;;;20.17;;
24739;SDS011;45234;48.148;17.128;2023-12-07T03:11:02;40.88;;;20.80;;
24739;SDS011;45234;48.148;17.128;2023-12-07T03:13:30;41.58;;;21.33;;
24739;SDS011;45234;48.148;17.128;2023-12-07T03:15:57;43.65;;;21.35;;
24739;SDS011;45234;48.148;17.128;2023-12-07T03:18:24;41.72;;;20.65;;
24739;SDS011;45234;48.148;17.128;2023-12-07T03:20:51;40.05;;;21.67;;
24739;SDS011;45234;48.148;17.128;2023-12-07T03:23:18;34.63;;;18.08;;
24739;SDS011;45234;48.148;17.128;2023-12-07T03:25:45;29.42;;;16.10;;
24739;SDS011;45234;48.148;17.128;2023-12-07T03:28:12;32.83;;;17.83;;
24739;SDS011;45234;48.148;17.128;2023-12-07T03:30:39;33.45;;;17.95;;
24739;SDS011;45234;48.148;17.128;2023-12-07T03:33:05;33.67;;;16.88;;
24739;SDS011;45234;48.148;17.128;2023-12-07T03:35:33;23.63;;;13.60;;
24739;SDS011;45234;48.148;17.128;2023-12-07T03:38:00;21.20;;;11.93;;
24739;SDS011;45234;48.148;17.128;2023-12-07T03:40:30;23.95;;;13.25;;
24739;SDS011;45234;48.148;17.128;2023-12-07T03:42:58;19.08;;;12.25;;
24739;SDS011;45234;48.148;17.128;2023-12-07T03:45:24;22.58;;;13.27;;
24739;SDS011;45234;48.148;17.128;2023-12-07T03:47:52;21.65;;;12.80;;
24739;SDS011;45234;48.148;17.128;2023-12-07T03:50:19;19.33;;;11.25;;
24739;SDS011;45234;48.148;17.128;2023-12-07T03:52:46;20.02;;;11.73;;
24739;SDS011;45234;48.148;17.128;2023-12-07T03:55:15;19.35;;;12.20;;
24739;SDS011;45234;48.148;17.128;2023-12-07T03:57:42;19.60;;;11.93;;
24739;SDS011;45234;48.148;17.128;2023-12-07T04:00:10;17.33;;;10.73;;
24739;SDS011;45234;48.148;17.128;2023-12-07T04:02:38;18.98;;;11.18;;
24739;SDS011;45234;48.148;17.128;2023-12-07T04:05:05;16.90;;;10.27;;
24739;SDS011;45234;48.148;17.128;2023-12-07T04:07:32;20.85;;;12.70;;
24739;SDS011;45234;48.148;17.128;2023-12-07T04:10:00;18.25;;;11.02;;
24739;SDS011;45234;48.148;17.128;2023-12-07T04:12:27;14.52;;;9.68;;
24739;SDS011;45234;48.148;17.128;2023-12-07T04:14:54;15.23;;;10.10;;
24739;SDS011;45234;48.148;17.128;2023-12-07T04:17:21;15.00;;;9.82;;
24739;SDS011;45234;48.148;17.128;2023-12-07T04:19:48;12.63;;;8.85;;
24739;SDS011;45234;48.148;17.128;2023-12-07T04:22:15;12.48;;;8.25;;
24739;SDS011;45234;48.148;17.128;2023-12-07T04:24:41;13.68;;;9.07;;
24739;SDS011;45234;48.148;17.128;2023-12-07T04:27:08;13.15;;;8.88;;
24739;SDS011;45234;48.148;17.128;2023-12-07T04:29:35;11.95;;;8.80;;
24739;SDS011;45234;48.148;17.128;2023-12-07T04:32:02;12.20;;;8.27;;
24739;SDS011;45234;48.148;17.128;2023-12-07T04:34:29;12.57;;;8.45;;
24739;SDS011;45234;48.148;17.128;2023-12-07T04:36:56;10.38;;;7.88;;
24739;SDS011;45234;48.148;17.128;2023-12-07T04:39:23;12.65;;;8.63;;
24739;SDS011;45234;48.148;17.128;2023-12-07T04:41:50;10.95;;;8.40;;
24739;SDS011;45234;48.148;17.128;2023-12-07T04:44:17;8.07;;;7.10;;
24739;SDS011;45234;48.148;17.128;2023-12-07T04:46:45;10.00;;;7.82;;
24739;SDS011;45234;48.148;17.128;2023-12-07T04:49:12;9.82;;;8.60;;
24739;SDS011;45234;48.148;17.128;2023-12-07T04:51:39;11.93;;;8.80;;
24739;SDS011;45234;48.148;17.128;2023-12-07T04:54:07;10.88;;;7.40;;
24739;SDS011;45234;48.148;17.128;2023-12-07T04:56:44;8.60;;;6.85;;
24739;SDS011;45234;48.148;17.128;2023-12-07T04:59:11;10.25;;;8.43;;
24739;SDS011;45234;48.148;17.128;2023-12-07T05:01:38;11.32;;;8.25;;
24739;SDS011;45234;48.148;17.128;2023-12-07T05:04:05;12.40;;;8.77;;
24739;SDS011;45234;48.148;17.128;2023-12-07T05:06:32;9.70;;;7.22;;
24739;SDS011;45234;48.148;17.128;2023-12-07T05:09:01;8.80;;;7.18;;
24739;SDS011;45234;48.148;17.128;2023-12-07T05:11:28;10.88;;;8.18;;
24739;SDS011;45234;48.148;17.128;2023-12-07T05:13:55;9.63;;;8.13;;
24739;SDS011;45234;48.148;17.128;2023-12-07T05:16:23;10.10;;;8.00;;
24739;SDS011;45234;48.148;17.128;2023-12-07T05:18:50;8.88;;;7.72;;
24739;SDS011;45234;48.148;17.128;2023-12-07T05:21:17;9.32;;;7.10;;
24739;SDS011;45234;48.148;17.128;2023-12-07T05:23:43;8.20;;;6.88;;
24739;SDS011;45234;48.148;17.128;2023-12-07T05:26:10;9.35;;;7.53;;
24739;SDS011;45234;48.148;17.128;2023-12-07T05:28:37;10.13;;;8.18;;
24739;SDS011;45234;48.148;17.128;2023-12-07T05:31:05;10.57;;;7.57;;
24739;SDS011;45234;48.148;17.128;2023-12-07T05:33:32;10.07;;;7.18;;
24739;SDS011;45234;48.148;17.128;2023-12-07T05:36:00;8.75;;;7.70;;
24739;SDS011;45234;48.148;17.128;2023-12-07T05:38:29;9.65;;;7.05;;
24739;SDS011;45234;48.148;17.128;2023-12-07T05:40:56;9.52;;;8.13;;
24739;SDS011;45234;48.148;17.128;2023-12-07T05:43:22;9.85;;;7.18;;
24739;SDS011;45234;48.148;17.128;2023-12-07T05:45:49;10.93;;;7.95;;
24739;SDS011;45234;48.148;17.128;2023-12-07T05:48:16;9.35;;;6.97;;
24739;SDS011;45234;48.148;17.128;2023-12-07T05:50:43;9.88;;;7.97;;
24739;SDS011;45234;48.148;17.128;2023-12-07T05:53:10;11.35;;;7.30;;
24739;SDS011;45234;48.148;17.128;2023-12-07T05:55:38;9.95;;;7.50;;
24739;SDS011;45234;48.148;17.128;2023-12-07T05:58:05;8.55;;;7.25;;
24739;SDS011;45234;48.148;17.128;2023-12-07T06:00:32;8.48;;;6.50;;
24739;SDS011;45234;48.148;17.128;2023-12-07T06:02:59;10.27;;;7.43;;
24739;SDS011;45234;48.148;17.128;2023-12-07T06:05:26;8.85;;;6.93;;
24739;SDS011;45234;48.148;17.128;2023-12-07T06:07:53;8.57;;;6.72;;
24739;SDS011;45234;48.148;17.128;2023-12-07T06:10:21;10.18;;;7.68;;
24739;SDS011;45234;48.148;17.128;2023-12-07T06:12:48;9.73;;;7.22;;
24739;SDS011;45234;48.148;17.128;2023-12-07T06:15:15;10.32;;;6.95;;
24739;SDS011;45234;48.148;17.128;2023-12-07T06:17:42;8.90;;;6.30;;
24739;SDS011;45234;48.148;17.128;2023-12-07T06:20:10;8.30;;;6.40;;
24739;SDS011;45234;48.148;17.128;2023-12-07T06:22:37;8.15;;;6.57;;
24739;SDS011;45234;48.148;17.128;2023-12-07T06:25:04;9.07;;;6.85;;
24739;SDS011;45234;48.148;17.128;2023-12-07T06:27:31;10.50;;;7.45;;
24739;SDS011;45234;48.148;17.128;2023-12-07T06:29:59;9.48;;;6.72;;
24739;SDS011;45234;48.148;17.128;2023-12-07T06:32:28;8.15;;;6.07;;
24739;SDS011;45234;48.148;17.128;2023-12-07T06:34:55;8.63;;;7.10;;
24739;SDS011;45234;48.148;17.128;2023-12-07T06:37:22;9.52;;;7.30;;
24739;SDS011;45234;48.148;17.128;2023-12-07T06:39:48;8.65;;;6.85;;
24739;SDS011;45234;48.148;17.128;2023-12-07T06:42:16;10.18;;;7.18;;
24739;SDS011;45234;48.148;17.128;2023-12-07T06:44:43;9.18;;;7.00;;
24739;SDS011;45234;48.148;17.128;2023-12-07T06:47:15;8.65;;;6.60;;
24739;SDS011;45234;48.148;17.128;2023-12-07T06:49:42;7.07;;;5.63;;
24739;SDS011;45234;48.148;17.128;2023-12-07T06:52:17;9.70;;;6.13;;
24739;SDS011;45234;48.148;17.128;2023-12-07T06:54:44;8.77;;;6.88;;
24739;SDS011;45234;48.148;17.128;2023-12-07T06:57:12;8.48;;;6.70;;
24739;SDS011;45234;48.148;17.128;2023-12-07T06:59:39;9.75;;;7.30;;
24739;SDS011;45234;48.148;17.128;2023-12-07T07:02:08;9.25;;;6.93;;
24739;SDS011;45234;48.148;17.128;2023-12-07T07:04:35;8.85;;;7.30;;
24739;SDS011;45234;48.148;17.128;2023-12-07T07:07:02;10.65;;;7.70;;
24739;SDS011;45234;48.148;17.128;2023-12-07T07:09:29;10.00;;;7.97;;
24739;SDS011;45234;48.148;17.128;2023-12-07T07:11:57;10.95;;;8.05;;
24739;SDS011;45234;48.148;17.128;2023-12-07T07:14:24;9.75;;;7.60;;
24739;SDS011;45234;48.148;17.128;2023-12-07T07:16:52;8.50;;;7.25;;
24739;SDS011;45234;48.148;17.128;2023-12-07T07:19:19;8.30;;;6.70;;
24739;SDS011;45234;48.148;17.128;2023-12-07T07:21:46;7.82;;;6.45;;
24739;SDS011;45234;48.148;17.128;2023-12-07T07:24:13;10.15;;;7.88;;
24739;SDS011;45234;48.148;17.128;2023-12-07T07:26:40;10.27;;;7.30;;
24739;SDS011;45234;48.148;17.128;2023-12-07T07:29:07;9.10;;;7.10;;
24739;SDS011;45234;48.148;17.128;2023-12-07T07:31:34;9.18;;;7.03;;
24739;SDS011;45234;48.148;17.128;2023-12-07T07:34:02;12.27;;;6.78;;
24739;SDS011;45234;48.148;17.128;2023-12-07T07:36:31;9.20;;;7.07;;
24739;SDS011;45234;48.148;17.128;2023-12-07T07:38:58;9.23;;;6.93;;
24739;SDS011;45234;48.148;17.128;2023-12-07T07:41:26;9.07;;;6.82;;
24739;SDS011;45234;48.148;17.128;2023-12-07T07:43:53;9.50;;;7.07;;
24739;SDS011;45234;48.148;17.128;2023-12-07T07:46:19;9.10;;;7.03;;
24739;SDS011;45234;48.148;17.128;2023-12-07T07:48:46;9.38;;;7.57;;
24739;SDS011;45234;48.148;17.128;2023-12-07T07:51:13;8.18;;;6.88;;
24739;SDS011;45234;48.148;17.128;2023-12-07T07:53:40;11.07;;;7.57;;
24739;SDS011;45234;48.148;17.128;2023-12-07T07:56:07;8.15;;;6.70;;
24739;SDS011;45234;48.148;17.128;2023-12-07T07:58:34;8.38;;;7.00;;
24739;SDS011;45234;48.148;17.128;2023-12-07T08:01:01;8.65;;;7.07;;
24739;SDS011;45234;48.148;17.128;2023-12-07T08:03:29;10.43;;;7.57;;
24739;SDS011;45234;48.148;17.128;2023-12-07T08:05:56;9.68;;;7.80;;
24739;SDS011;45234;48.148;17.128;2023-12-07T08:08:23;9.73;;;7.82;;
24739;SDS011;45234;48.148;17.128;2023-12-07T08:10:52;9.18;;;7.35;;
24739;SDS011;45234;48.148;17.128;2023-12-07T08:13:21;10.45;;;6.88;;
24739;SDS011;45234;48.148;17.128;2023-12-07T08:15:48;9.80;;;7.60;;
24739;SDS011;45234;48.148;17.128;2023-12-07T08:18:16;9.20;;;7.47;;
24739;SDS011;45234;48.148;17.128;2023-12-07T08:20:43;10.82;;;8.60;;
24739;SDS011;45234;48.148;17.128;2023-12-07T08:23:11;8.73;;;7.03;;
24739;SDS011;45234;48.148;17.128;2023-12-07T08:25:38;9.13;;;7.28;;
24739;SDS011;45234;48.148;17.128;2023-12-07T08:28:06;10.25;;;7.90;;
24739;SDS011;45234;48.148;17.128;2023-12-07T08:30:35;9.15;;;7.07;;
24739;SDS011;45234;48.148;17.128;2023-12-07T08:33:02;10.15;;;7.25;;
24739;SDS011;45234;48.148;17.128;2023-12-07T08:35:29;12.38;;;9.25;;
24739;SDS011;45234;48.148;17.128;2023-12-07T08:37:56;11.10;;;8.15;;
24739;SDS011;45234;48.148;17.128;2023-12-07T08:40:23;10.50;;;8.38;;
24739;SDS011;45234;48.148;17.128;2023-12-07T08:42:50;13.88;;;7.60;;
24739;SDS011;45234;48.148;17.128;2023-12-07T08:45:17;9.45;;;7.45;;
24739;SDS011;45234;48.148;17.128;2023-12-07T08:47:44;9.85;;;7.22;;
24739;SDS011;45234;48.148;17.128;2023-12-07T08:50:12;11.05;;;7.95;;
24739;SDS011;45234;48.148;17.128;2023-12-07T08:52:39;11.70;;;8.50;;
24739;SDS011;45234;48.148;17.128;2023-12-07T08:55:14;10.18;;;7.70;;
24739;SDS011;45234;48.148;17.128;2023-12-07T08:57:42;9.50;;;7.78;;
24739;SDS011;45234;48.148;17.128;2023-12-07T09:00:09;9.15;;;7.35;;
24739;SDS011;45234;48.148;17.128;2023-12-07T09:02:39;10.45;;;8.13;;
24739;SDS011;45234;48.148;17.128;2023-12-07T09:05:12;11.38;;;7.88;;
24739;SDS011;45234;48.148;17.128;2023-12-07T09:07:39;17.67;;;9.38;;
24739;SDS011;45234;48.148;17.128;2023-12-07T09:10:07;13.27;;;9.73;;
24739;SDS011;45234;48.148;17.128;2023-12-07T09:12:35;12.48;;;9.15;;
24739;SDS011;45234;48.148;17.128;2023-12-07T09:15:04;10.88;;;8.20;;
24739;SDS011;45234;48.148;17.128;2023-12-07T09:17:37;11.90;;;7.63;;
24739;SDS011;45234;48.148;17.128;2023-12-07T09:20:06;10.98;;;7.80;;
24739;SDS011;45234;48.148;17.128;2023-12-07T09:22:42;13.27;;;9.38;;
24739;SDS011;45234;48.148;17.128;2023-12-07T09:25:17;12.82;;;8.93;;
24739;SDS011;45234;48.148;17.128;2023-12-07T09:27:44;11.93;;;8.63;;
24739;SDS011;45234;48.148;17.128;2023-12-07T09:30:12;11.98;;;8.48;;
24739;SDS011;45234;48.148;17.128;2023-12-07T09:32:39;12.35;;;9.10;;
24739;SDS011;45234;48.148;17.128;2023-12-07T09:35:10;13.77;;;9.90;;
24739;SDS011;45234;48.148;17.128;2023-12-07T09:37:45;12.75;;;9.82;;
24739;SDS011;45234;48.148;17.128;2023-12-07T09:40:14;10.95;;;8.18;;
24739;SDS011;45234;48.148;17.128;2023-12-07T09:42:43;10.82;;;8.85;;
24739;SDS011;45234;48.148;17.128;2023-12-07T09:45:10;13.55;;;9.02;;
24739;SDS011;45234;48.148;17.128;2023-12-07T09:47:39;10.02;;;7.90;;
24739;SDS011;45234;48.148;17.128;2023-12-07T09:50:07;10.07;;;8.50;;
24739;SDS011;45234;48.148;17.128;2023-12-07T09:52:35;19.80;;;9.27;;
24739;SDS011;45234;48.148;17.128;2023-12-07T09:55:03;12.50;;;9.75;;
24739;SDS011;45234;48.148;17.128;2023-12-07T09:57:31;12.10;;;8.38;;
24739;SDS011;45234;48.148;17.128;2023-12-07T10:00:00;13.15;;;9.80;;
24739;SDS011;45234;48.148;17.128;2023-12-07T10:02:31;11.77;;;9.40;;
24739;SDS011;45234;48.148;17.128;2023-12-07T10:05:03;14.40;;;9.23;;
24739;SDS011;45234;48.148;17.128;2023-12-07T10:07:40;10.73;;;8.63;;
24739;SDS011;45234;48.148;17.128;2023-12-07T10:10:07;13.13;;;9.45;;
24739;SDS011;45234;48.148;17.128;2023-12-07T10:12:43;10.38;;;8.55;;
24739;SDS011;45234;48.148;17.128;2023-12-07T10:15:14;10.13;;;8.30;;
24739;SDS011;45234;48.148;17.128;2023-12-07T10:17:45;12.50;;;9.48;;
24739;SDS011;45234;48.148;17.128;2023-12-07T10:20:17;11.38;;;8.98;;
24739;SDS011;45234;48.148;17.128;2023-12-07T10:22:45;10.35;;;8.40;;
24739;SDS011;45234;48.148;17.128;2023-12-07T10:25:13;10.80;;;8.57;;
24739;SDS011;45234;48.148;17.128;2023-12-07T10:27:41;11.13;;;9.07;;
24739;SDS011;45234;48.148;17.128;2023-12-07T10:30:09;12.95;;;10.02;;
24739;SDS011;45234;48.148;17.128;2023-12-07T10:32:37;11.80;;;9.35;;
24739;SDS011;45234;48.148;17.128;2023-12-07T10:35:06;12.52;;;9.43;;
24739;SDS011;45234;48.148;17.128;2023-12-07T10:37:33;12.82;;;9.38;;
24739;SDS011;45234;48.148;17.128;2023-12-07T10:40:01;11.90;;;9.38;;
24739;SDS011;45234;48.148;17.128;2023-12-07T10:42:29;12.65;;;9.48;;
24739;SDS011;45234;48.148;17.128;2023-12-07T10:44:58;12.15;;;8.90;;
24739;SDS011;45234;48.148;17.128;2023-12-07T10:47:31;12.15;;;9.65;;
24739;SDS011;45234;48.148;17.128;2023-12-07T10:50:03;11.00;;;8.18;;
24739;SDS011;45234;48.148;17.128;2023-12-07T10:52:42;12.65;;;9.52;;
24739;SDS011;45234;48.148;17.128;2023-12-07T10:55:16;14.98;;;10.68;;
24739;SDS011;45234;48.148;17.128;2023-12-07T10:57:44;13.73;;;10.38;;
24739;SDS011;45234;48.148;17.128;2023-12-07T11:00:14;12.15;;;8.95;;
24739;SDS011;45234;48.148;17.128;2023-12-07T11:02:42;12.75;;;9.85;;
24739;SDS011;45234;48.148;17.128;2023-12-07T11:05:10;13.63;;;9.82;;
24739;SDS011;45234;48.148;17.128;2023-12-07T11:10:43;12.00;;;8.98;;
24739;SDS011;45234;48.148;17.128;2023-12-07T11:13:30;10.85;;;8.77;;
24739;SDS011;45234;48.148;17.128;2023-12-07T11:16:01;31.35;;;19.48;;
24739;SDS011;45234;48.148;17.128;2023-12-07T11:18:29;12.13;;;9.27;;
24739;SDS011;45234;48.148;17.128;2023-12-07T11:20:57;12.45;;;9.60;;
24739;SDS011;45234;48.148;17.128;2023-12-07T11:23:25;12.85;;;9.18;;
24739;SDS011;45234;48.148;17.128;2023-12-07T11:25:54;11.07;;;8.77;;
24739;SDS011;45234;48.148;17.128;2023-12-07T11:28:35;12.52;;;9.45;;
24739;SDS011;45234;48.148;17.128;2023-12-07T11:31:08;13.27;;;9.30;;
24739;SDS011;45234;48.148;17.128;2023-12-07T11:33:38;11.88;;;9.30;;
24739;SDS011;45234;48.148;17.128;2023-12-07T11:36:10;15.20;;;8.60;;
24739;SDS011;45234;48.148;17.128;2023-12-07T11:38:39;11.90;;;9.25;;
24739;SDS011;45234;48.148;17.128;2023-12-07T11:41:50;11.50;;;8.63;;
24739;SDS011;45234;48.148;17.128;2023-12-07T11:44:19;14.10;;;10.63;;
24739;SDS011;45234;48.148;17.128;2023-12-07T11:46:49;11.27;;;9.13;;
24739;SDS011;45234;48.148;17.128;2023-12-07T11:49:16;13.13;;;10.35;;
24739;SDS011;45234;48.148;17.128;2023-12-07T11:51:58;13.00;;;9.57;;
24739;SDS011;45234;48.148;17.128;2023-12-07T11:54:28;10.68;;;8.80;;
24739;SDS011;45234;48.148;17.128;2023-12-07T11:56:56;14.20;;;10.23;;
24739;SDS011;45234;48.148;17.128;2023-12-07T11:59:24;11.52;;;9.65;;
24739;SDS011;45234;48.148;17.128;2023-12-07T12:01:59;10.52;;;8.65;;
24739;SDS011;45234;48.148;17.128;2023-12-07T12:04:28;11.35;;;9.23;;
24739;SDS011;45234;48.148;17.128;2023-12-07T12:06:56;13.10;;;10.02;;
24739;SDS011;45234;48.148;17.128;2023-12-07T12:09:26;13.68;;;9.75;;
24739;SDS011;45234;48.148;17.128;2023-12-07T12:11:58;12.27;;;9.98;;
24739;SDS011;45234;48.148;17.128;2023-12-07T12:14:29;11.70;;;9.23;;
24739;SDS011;45234;48.148;17.128;2023-12-07T12:16:56;16.65;;;10.82;;
24739;SDS011;45234;48.148;17.128;2023-12-07T12:19:23;13.10;;;10.25;;
24739;SDS011;45234;48.148;17.128;2023-12-07T12:22:00;12.82;;;9.82;;
24739;SDS011;45234;48.148;17.128;2023-12-07T12:24:31;12.90;;;9.82;;
24739;SDS011;45234;48.148;17.128;2023-12-07T12:26:59;14.05;;;11.00;;
24739;SDS011;45234;48.148;17.128;2023-12-07T12:29:29;12.68;;;9.88;;
24739;SDS011;45234;48.148;17.128;2023-12-07T12:32:00;13.30;;;10.35;;
24739;SDS011;45234;48.148;17.128;2023-12-07T12:34:29;13.43;;;10.40;;
24739;SDS011;45234;48.148;17.128;2023-12-07T12:36:58;13.57;;;9.80;;
24739;SDS011;45234;48.148;17.128;2023-12-07T12:39:28;13.95;;;10.68;;
24739;SDS011;45234;48.148;17.128;2023-12-07T12:41:59;14.63;;;10.95;;
24739;SDS011;45234;48.148;17.128;2023-12-07T12:44:27;15.20;;;10.77;;
24739;SDS011;45234;48.148;17.128;2023-12-07T12:47:02;16.55;;;11.25;;
24739;SDS011;45234;48.148;17.128;2023-12-07T12:49:38;13.50;;;10.70;;
24739;SDS011;45234;48.148;17.128;2023-12-07T12:52:09;13.50;;;9.88;;
24739;SDS011;45234;48.148;17.128;2023-12-07T12:54:38;13.35;;;10.23;;
24739;SDS011;45234;48.148;17.128;2023-12-07T12:57:08;14.55;;;10.70;;
24739;SDS011;45234;48.148;17.128;2023-12-07T12:59:35;15.82;;;10.60;;
24739;SDS011;45234;48.148;17.128;2023-12-07T13:02:02;15.07;;;10.60;;
24739;SDS011;45234;48.148;17.128;2023-12-07T13:04:35;13.50;;;10.57;;
24739;SDS011;45234;48.148;17.128;2023-12-07T13:07:07;14.32;;;10.90;;
24739;SDS011;45234;48.148;17.128;2023-12-07T13:09:34;15.30;;;11.18;;
24739;SDS011;45234;48.148;17.128;2023-12-07T13:12:01;14.55;;;11.48;;
24739;SDS011;45234;48.148;17.128;2023-12-07T13:14:30;13.32;;;10.63;;
24739;SDS011;45234;48.148;17.128;2023-12-07T13:17:02;14.15;;;11.15;;
24739;SDS011;45234;48.148;17.128;2023-12-07T13:19:30;15.35;;;11.80;;
24739;SDS011;45234;48.148;17.128;2023-12-07T13:21:58;16.50;;;11.77;;
24739;SDS011;45234;48.148;17.128;2023-12-07T13:24:25;16.17;;;11.75;;
24739;SDS011;45234;48.148;17.128;2023-12-07T13:26:52;16.92;;;11.77;;
24739;SDS011;45234;48.148;17.128;2023-12-07T13:29:18;17.15;;;11.73;;
24739;SDS011;45234;48.148;17.128;2023-12-07T13:31:59;14.85;;;10.43;;
24739;SDS011;45234;48.148;17.128;2023-12-07T13:34:26;17.55;;;12.82;;
24739;SDS011;45234;48.148;17.128;2023-12-07T13:36:54;15.20;;;11.48;;
24739;SDS011;45234;48.148;17.128;2023-12-07T13:39:21;14.95;;;11.65;;
24739;SDS011;45234;48.148;17.128;2023-12-07T13:41:56;15.75;;;11.32;;
24739;SDS011;45234;48.148;17.128;2023-12-07T13:44:26;15.00;;;11.07;;
24739;SDS011;45234;48.148;17.128;2023-12-07T13:46:54;15.27;;;10.25;;
24739;SDS011;45234;48.148;17.128;2023-12-07T13:49:23;15.98;;;11.60;;
24739;SDS011;45234;48.148;17.128;2023-12-07T13:51:58;13.60;;;10.60;;
24739;SDS011;45234;48.148;17.128;2023-12-07T13:54:33;14.30;;;10.65;;
24739;SDS011;45234;48.148;17.128;2023-12-07T13:57:18;13.55;;;10.10;;
24739;SDS011;45234;48.148;17.128;2023-12-07T13:59:51;14.75;;;10.48;;
24739;SDS011;45234;48.148;17.128;2023-12-07T14:02:19;13.77;;;10.23;;
24739;SDS011;45234;48.148;17.128;2023-12-07T14:04:46;14.45;;;10.98;;
24739;SDS011;45234;48.148;17.128;2023-12-07T14:07:17;17.90;;;12.10;;
24739;SDS011;45234;48.148;17.128;2023-12-07T14:09:47;15.43;;;10.05;;
24739;SDS011;45234;48.148;17.128;2023-12-07T14:12:27;16.08;;;9.45;;
24739;SDS011;45234;48.148;17.128;2023-12-07T14:14:55;14.90;;;10.73;;
24739;SDS011;45234;48.148;17.128;2023-12-07T14:17:24;14.55;;;10.65;;
24739;SDS011;45234;48.148;17.128;2023-12-07T14:20:05;14.23;;;10.10;;
24739;SDS011;45234;48.148;17.128;2023-12-07T14:22:54;13.18;;;9.48;;
24739;SDS011;45234;48.148;17.128;2023-12-07T14:25:22;15.80;;;10.52;;
24739;SDS011;45234;48.148;17.128;2023-12-07T14:27:49;13.13;;;10.18;;
24739;SDS011;45234;48.148;17.128;2023-12-07T14:30:16;14.38;;;10.75;;
24739;SDS011;45234;48.148;17.128;2023-12-07T14:32:44;13.02;;;9.80;;
24739;SDS011;45234;48.148;17.128;2023-12-07T14:35:19;13.93;;;10.25;;